Time;durP1;ratioP1;P1;durP2;ratioP2;P2;SDS_P1;SDS_P2;PMS_P1;PMS_P2;Temp;Humidity;BMP_temperature;BMP_pressure;BME280_temperature;BME280_humidity;BME280_pressure;Samples;Min_cycle;Max_cycle;Signal;HPM_P1;HPM_P2
2022/10/12 00:01:21;;;;;;;0.10;0.10;;;14.90;99.90;;;;;;5018669;28;20026;-74
2022/10/12 00:03:47;;;;;;;0.08;0.08;;;14.90;99.90;;;;;;5000941;28;20080;-74
2022/10/12 00:06:16;;;;;;;5.60;3.13;;;14.90;99.90;;;;;;5000915;28;20053;-74
2022/10/12 00:08:44;;;;;;;0.10;0.10;;;14.90;99.90;;;;;;5018537;28;20041;-74
2022/10/12 00:11:14;;;;;;;0.05;0.05;;;14.90;99.90;;;;;;5018488;28;20026;-74
2022/10/12 00:13:40;;;;;;;0.30;0.30;;;14.90;99.90;;;;;;5018498;28;20509;-74
2022/10/12 00:16:08;;;;;;;0.10;0.10;;;14.90;99.90;;;;;;5018307;28;20017;-74
2022/10/12 00:18:35;;;;;;;0.00;0.00;;;15.00;99.90;;;;;;5000879;28;20079;-74
2022/10/12 00:21:09;;;;;;;0.00;0.00;;;15.10;99.90;;;;;;5018505;28;20022;-74
2022/10/12 00:23:36;;;;;;;0.10;0.10;;;15.10;99.90;;;;;;5000850;28;20026;-74
2022/10/12 00:26:05;;;;;;;0.00;0.00;;;15.20;99.90;;;;;;5018267;28;20499;-74
2022/10/12 00:28:31;;;;;;;0.10;0.10;;;15.00;99.90;;;;;;5018174;28;20026;-74
2022/10/12 00:30:57;;;;;;;0.57;0.57;;;14.90;99.90;;;;;;5018406;28;20032;-74
2022/10/12 00:33:23;;;;;;;1.08;0.98;;;14.90;99.90;;;;;;5018530;28;20390;-74
2022/10/12 00:35:49;;;;;;;0.10;0.10;;;14.80;99.90;;;;;;5000631;28;20022;-74
2022/10/12 00:38:15;;;;;;;0.65;0.63;;;14.80;99.90;;;;;;5000549;28;20026;-74
2022/10/12 00:40:41;;;;;;;0.00;0.00;;;14.80;99.90;;;;;;5001109;28;20026;-74
2022/10/12 00:43:33;;;;;;;0.10;0.10;;;14.80;99.90;;;;;;5000546;28;20022;-74
2022/10/12 00:46:02;;;;;;;2.83;2.63;;;14.80;99.90;;;;;;5000596;28;20386;-73
2022/10/12 00:48:28;;;;;;;0.00;0.00;;;14.70;99.90;;;;;;5018148;28;20371;-74
2022/10/12 00:50:56;;;;;;;0.10;0.10;;;14.60;99.90;;;;;;5018322;28;20026;-74
2022/10/12 00:53:27;;;;;;;0.85;0.55;;;14.60;99.90;;;;;;5018068;28;20028;-74
2022/10/12 00:55:57;;;;;;;0.35;0.35;;;14.70;99.90;;;;;;5000374;28;20030;-74
2022/10/12 00:58:23;;;;;;;0.10;0.10;;;14.80;99.90;;;;;;5000569;28;20389;-74
2022/10/12 01:00:50;;;;;;;0.08;0.08;;;14.90;99.90;;;;;;5018077;28;20033;-73
2022/10/12 01:03:21;;;;;;;0.10;0.10;;;15.00;99.90;;;;;;4997369;28;20026;-74
2022/10/12 01:05:47;;;;;;;0.20;0.20;;;15.00;99.90;;;;;;5014718;28;20030;-74
2022/10/12 01:08:13;;;;;;;3.25;1.05;;;15.00;99.90;;;;;;4997185;28;20269;-74
2022/10/12 01:10:38;;;;;;;0.10;0.10;;;15.10;99.90;;;;;;5014860;28;20389;-74
2022/10/12 01:13:05;;;;;;;0.00;0.00;;;15.00;99.90;;;;;;5014942;28;20104;-74
2022/10/12 01:15:46;;;;;;;0.30;0.30;;;14.80;99.90;;;;;;4996910;28;20022;-74
2022/10/12 01:18:22;;;;;;;0.10;0.10;;;14.80;99.90;;;;;;5014867;28;20057;-74
2022/10/12 01:21:17;;;;;;;0.00;0.00;;;14.90;99.90;;;;;;5014839;28;20030;-74
2022/10/12 01:24:11;;;;;;;0.10;0.10;;;15.00;99.90;;;;;;5014567;28;20018;-74
2022/10/12 01:26:40;;;;;;;0.10;0.10;;;14.90;99.90;;;;;;5014308;28;20034;-74
2022/10/12 01:29:09;;;;;;;0.10;0.10;;;14.70;99.90;;;;;;5014459;28;20486;-73
2022/10/12 01:31:39;;;;;;;0.10;0.10;;;14.60;99.90;;;;;;4997033;28;20109;-74
2022/10/12 01:34:33;;;;;;;0.00;0.00;;;14.70;99.90;;;;;;5014459;28;20026;-74
2022/10/12 01:37:27;;;;;;;0.10;0.10;;;14.80;99.90;;;;;;5014289;28;20076;-74
2022/10/12 01:39:55;;;;;;;0.10;0.10;;;14.80;99.90;;;;;;4996613;28;20040;-74
2022/10/12 01:42:35;;;;;;;0.38;0.38;;;14.70;99.90;;;;;;5014296;28;20139;-74
2022/10/12 01:45:04;;;;;;;0.10;0.10;;;14.70;99.90;;;;;;5013993;28;20116;-74
2022/10/12 01:47:32;;;;;;;0.10;0.10;;;14.70;99.90;;;;;;4980467;28;20034;-74
2022/10/12 01:49:59;;;;;;;0.10;0.10;;;14.90;99.90;;;;;;5014116;28;20393;-74
2022/10/12 01:52:37;;;;;;;0.08;0.08;;;14.80;99.90;;;;;;4996562;28;20112;-74
2022/10/12 01:55:24;;;;;;;0.10;0.10;;;14.70;99.90;;;;;;5013867;28;20041;-74
2022/10/12 01:58:16;;;;;;;0.10;0.10;;;14.50;99.90;;;;;;4996467;28;20022;-74
2022/10/12 02:00:48;;;;;;;;;;;14.50;99.90;;;;;;5014405;28;20133;-73
2022/10/12 02:03:32;;;;;;;0.10;0.10;;;14.60;99.90;;;;;;5013991;28;19924;-73
2022/10/12 02:06:11;;;;;;;0.00;0.00;;;14.70;99.90;;;;;;4996114;28;20053;-74
2022/10/12 02:08:58;;;;;;;0.10;0.10;;;14.80;99.90;;;;;;4996263;28;20033;-73
2022/10/12 02:11:26;;;;;;;0.00;0.00;;;14.80;99.90;;;;;;5013834;28;20033;-74
2022/10/12 02:14:02;;;;;;;0.10;0.10;;;14.90;99.90;;;;;;5012753;28;20095;-74
2022/10/12 02:16:34;;;;;;;1.13;0.57;;;14.90;99.90;;;;;;5013318;28;20021;-74
2022/10/12 02:19:03;;;;;;;0.85;0.85;;;14.50;99.90;;;;;;5013734;28;20210;-74
2022/10/12 02:21:31;;;;;;;0.05;0.05;;;14.50;99.90;;;;;;5013574;28;20072;-74
2022/10/12 02:24:00;;;;;;;7.35;2.42;;;14.60;99.90;;;;;;4979714;28;20022;-74
2022/10/12 02:26:26;;;;;;;0.10;0.10;;;14.50;99.90;;;;;;4995584;28;20036;-74
2022/10/12 02:28:52;;;;;;;0.00;0.00;;;14.50;99.90;;;;;;4995966;28;20077;-74
2022/10/12 02:31:24;;;;;;;0.00;0.00;;;14.60;99.90;;;;;;4979638;28;20108;-74
2022/10/12 02:34:11;;;;;;;0.00;0.00;;;14.50;99.90;;;;;;4995816;28;20026;-74
2022/10/12 02:36:43;;;;;;;0.10;0.10;;;14.50;99.90;;;;;;4995753;28;20502;-74
2022/10/12 02:39:22;;;;;;;0.20;0.20;;;14.60;99.90;;;;;;5013151;28;20037;-74
2022/10/12 02:41:51;;;;;;;0.10;0.10;;;14.50;99.90;;;;;;5013443;28;20512;-74
2022/10/12 02:44:23;;;;;;;0.10;0.10;;;14.50;99.90;;;;;;5013137;28;20108;-74
2022/10/12 02:46:52;;;;;;;0.10;0.10;;;14.30;99.90;;;;;;5013082;28;20021;-74
2022/10/12 02:49:18;;;;;;;0.10;0.10;;;14.30;99.90;;;;;;5012951;28;20470;-74
2022/10/12 02:51:46;;;;;;;1.02;0.98;;;14.30;99.90;;;;;;5012997;28;20029;-74
2022/10/12 02:54:12;;;;;;;0.08;0.08;;;14.40;99.90;;;;;;5012988;28;20426;-74
2022/10/12 02:56:46;;;;;;;0.50;0.50;;;14.40;99.90;;;;;;5012748;28;20033;-74
2022/10/12 02:59:16;;;;;;;0.22;0.22;;;14.30;99.90;;;;;;4995401;28;20264;-74
2022/10/12 03:01:42;;;;;;;0.10;0.10;;;14.20;99.90;;;;;;5012785;28;20030;-74
2022/10/12 03:04:08;;;;;;;0.13;0.13;;;14.40;99.90;;;;;;5012755;28;20113;-74
2022/10/12 03:06:34;;;;;;;0.10;0.10;;;14.50;99.90;;;;;;4994896;28;20098;-74
2022/10/12 03:09:00;;;;;;;0.10;0.10;;;14.60;99.90;;;;;;5012734;28;20030;-74
2022/10/12 03:11:27;;;;;;;0.10;0.10;;;14.60;99.90;;;;;;5012820;28;20092;-74
2022/10/12 03:13:54;;;;;;;0.00;0.00;;;14.60;99.90;;;;;;5012590;28;20021;-74
2022/10/12 03:16:20;;;;;;;0.22;0.22;;;14.70;99.90;;;;;;4994655;28;20029;-74
2022/10/12 03:18:46;;;;;;;2.83;0.95;;;14.50;99.90;;;;;;5012581;28;20022;-74
2022/10/12 03:21:12;;;;;;;0.20;0.17;;;14.50;99.90;;;;;;4995028;28;20571;-74
2022/10/12 03:23:38;;;;;;;0.08;0.08;;;14.60;99.90;;;;;;5012467;28;20367;-74
2022/10/12 03:26:04;;;;;;;0.15;0.15;;;14.50;99.90;;;;;;5011979;28;20318;-73
2022/10/12 03:28:31;;;;;;;0.10;0.10;;;14.60;99.90;;;;;;5012165;28;20065;-74
2022/10/12 03:30:57;;;;;;;0.98;0.57;;;14.40;99.90;;;;;;5012476;28;20018;-73
2022/10/12 03:33:23;;;;;;;1.88;1.75;;;14.30;99.90;;;;;;5012399;28;20101;-73
2022/10/12 03:35:49;;;;;;;1.15;1.10;;;14.30;99.90;;;;;;5012196;28;20482;-73
2022/10/12 03:38:17;;;;;;;0.08;0.08;;;14.40;99.90;;;;;;5012370;28;20022;-73
2022/10/12 03:40:44;;;;;;;0.00;0.00;;;14.40;99.90;;;;;;5012772;28;20115;-73
2022/10/12 03:43:10;;;;;;;0.17;0.17;;;14.50;99.90;;;;;;5012309;28;20022;-74
2022/10/12 03:45:36;;;;;;;0.00;0.00;;;14.40;99.90;;;;;;5012153;28;20029;-74
2022/10/12 03:48:03;;;;;;;0.00;0.00;;;14.40;99.90;;;;;;4994825;28;20041;-74
2022/10/12 03:50:29;;;;;;;0.00;0.00;;;14.40;99.90;;;;;;5012174;28;20034;-74
2022/10/12 03:52:55;;;;;;;0.08;0.08;;;14.50;99.90;;;;;;5012178;28;20417;-73
2022/10/12 03:55:22;;;;;;;0.00;0.00;;;14.50;99.90;;;;;;4994372;28;20076;-73
2022/10/12 03:57:48;;;;;;;0.00;0.00;;;14.40;99.90;;;;;;5012129;28;20080;-74
2022/10/12 04:00:14;;;;;;;0.00;0.00;;;14.30;99.90;;;;;;5012439;28;20057;-74
2022/10/12 04:02:40;;;;;;;0.00;0.00;;;14.30;99.90;;;;;;5012071;28;20099;-73
2022/10/12 04:05:06;;;;;;;0.00;0.00;;;14.40;99.90;;;;;;5011845;28;20085;-73
2022/10/12 04:07:32;;;;;;;0.03;0.03;;;14.40;99.90;;;;;;5012069;28;20049;-74
2022/10/12 04:09:58;;;;;;;0.00;0.00;;;14.50;99.90;;;;;;5011885;28;20026;-73
2022/10/12 04:12:24;;;;;;;2.55;1.65;;;14.50;99.90;;;;;;4994358;28;20080;-74
2022/10/12 04:14:50;;;;;;;1.17;1.10;;;14.60;99.90;;;;;;5011874;28;20088;-74
2022/10/12 04:17:16;;;;;;;0.08;0.08;;;14.40;99.90;;;;;;5011981;28;20482;-74
2022/10/12 04:19:42;;;;;;;0.00;0.00;;;14.30;99.90;;;;;;4994456;28;20034;-74
2022/10/12 04:22:08;;;;;;;0.00;0.00;;;14.30;99.90;;;;;;5011939;28;20046;-74
2022/10/12 04:24:34;;;;;;;0.22;0.22;;;14.30;99.90;;;;;;5011863;28;20081;-74
2022/10/12 04:27:00;;;;;;;0.10;0.10;;;14.30;99.90;;;;;;4994139;28;20033;-74
2022/10/12 04:29:26;;;;;;;0.00;0.00;;;14.40;99.90;;;;;;5011850;28;20025;-74
2022/10/12 04:31:51;;;;;;;0.00;0.00;;;14.40;99.90;;;;;;4994328;28;20041;-74
2022/10/12 04:34:18;;;;;;;0.00;0.00;;;14.50;99.90;;;;;;5012234;28;20022;-74
2022/10/12 04:36:44;;;;;;;0.00;0.00;;;14.60;99.90;;;;;;5011564;28;20101;-74
2022/10/12 04:39:09;;;;;;;0.00;0.00;;;14.50;99.90;;;;;;4997552;28;20187;-74
2022/10/12 04:41:35;;;;;;;0.85;0.85;;;14.30;99.90;;;;;;5015428;28;20100;-74
2022/10/12 04:44:01;;;;;;;0.00;0.00;;;14.30;99.90;;;;;;5015316;28;20398;-74
2022/10/12 04:46:27;;;;;;;0.13;0.13;;;14.20;99.90;;;;;;5015200;28;20214;-74
2022/10/12 04:48:53;;;;;;;9.32;2.17;;;14.10;99.90;;;;;;5015129;28;20076;-74
2022/10/12 04:51:18;;;;;;;14.05;4.30;;;14.10;99.90;;;;;;5015134;28;20405;-74
2022/10/12 04:53:44;;;;;;;0.00;0.00;;;14.10;99.90;;;;;;5015206;28;20026;-74
2022/10/12 04:56:10;;;;;;;0.15;0.15;;;14.10;99.90;;;;;;4997347;28;20641;-74
2022/10/12 04:58:36;;;;;;;0.08;0.08;;;14.20;99.90;;;;;;5015058;28;20385;-74
2022/10/12 05:01:02;;;;;;;0.80;0.43;;;14.10;99.90;;;;;;4997423;28;20113;-73
2022/10/12 05:03:28;;;;;;;0.55;0.55;;;14.30;99.90;;;;;;4997301;28;20039;-74
2022/10/12 05:05:53;;;;;;;0.15;0.15;;;14.20;99.90;;;;;;5014556;28;20378;-74
2022/10/12 05:08:19;;;;;;;1.15;1.15;;;14.20;99.90;;;;;;5014903;28;20026;-74
2022/10/12 05:10:46;;;;;;;0.00;0.00;;;14.10;99.90;;;;;;5015014;28;20121;-74
2022/10/12 05:13:12;;;;;;;0.95;0.90;;;14.00;99.90;;;;;;4997430;28;20022;-74
2022/10/12 05:15:40;;;;;;;0.00;0.00;;;14.10;99.90;;;;;;5014507;28;20026;-74
2022/10/12 05:18:05;;;;;;;0.00;0.00;;;14.30;99.90;;;;;;5014749;28;20029;-74
2022/10/12 05:20:31;;;;;;;0.15;0.15;;;14.30;99.90;;;;;;5014559;28;20227;-74
2022/10/12 05:22:57;;;;;;;0.10;0.10;;;14.30;99.90;;;;;;5014755;28;20030;-74
2022/10/12 05:25:23;;;;;;;0.00;0.00;;;14.30;99.90;;;;;;5014487;28;20032;-74
2022/10/12 05:27:49;;;;;;;0.00;0.00;;;14.20;99.90;;;;;;5014905;28;20097;-74
2022/10/12 05:30:15;;;;;;;0.00;0.00;;;14.20;99.90;;;;;;5014578;28;20029;-74
2022/10/12 05:32:42;;;;;;;0.00;0.00;;;14.10;99.90;;;;;;5014318;28;20049;-72
2022/10/12 05:35:09;;;;;;;0.35;0.35;;;14.20;99.90;;;;;;5014134;28;20494;-72
2022/10/12 05:37:35;;;;;;;0.00;0.00;;;14.20;99.90;;;;;;5014276;28;20026;-72
2022/10/12 05:40:01;;;;;;;0.00;0.00;;;14.30;99.90;;;;;;5014194;28;20371;-72
2022/10/12 05:42:26;;;;;;;0.15;0.15;;;14.30;99.90;;;;;;4996723;28;20033;-72
2022/10/12 05:44:52;;;;;;;0.00;0.00;;;14.20;99.90;;;;;;5014045;28;20044;-72
2022/10/12 05:47:18;;;;;;;0.00;0.00;;;14.30;99.90;;;;;;5014277;28;20498;-72
2022/10/12 05:49:44;;;;;;;0.00;0.00;;;14.30;99.90;;;;;;5013633;28;20031;-72
2022/10/12 05:52:09;;;;;;;0.10;0.10;;;14.30;99.90;;;;;;5013951;28;20029;-72
2022/10/12 05:54:35;;;;;;;1.65;1.38;;;14.30;99.90;;;;;;5013844;28;20098;-73
2022/10/12 05:57:01;;;;;;;0.00;0.00;;;14.40;99.90;;;;;;5013890;28;20018;-72
2022/10/12 05:59:27;;;;;;;0.00;0.00;;;14.50;99.90;;;;;;5013989;28;20030;-72
2022/10/12 06:01:52;;;;;;;0.00;0.00;;;14.50;99.90;;;;;;5013842;28;20187;-72
2022/10/12 06:04:18;;;;;;;0.10;0.10;;;14.40;99.90;;;;;;5013772;28;20034;-73
2022/10/12 06:06:44;;;;;;;1.85;0.80;;;14.50;99.90;;;;;;5013635;28;20486;-73
2022/10/12 06:09:11;;;;;;;2.75;0.68;;;14.60;99.90;;;;;;5013710;28;20029;-71
2022/10/12 06:11:37;;;;;;;0.10;0.10;;;14.50;99.90;;;;;;5013658;28;20034;-72
2022/10/12 06:14:03;;;;;;;0.40;0.40;;;14.50;99.90;;;;;;5013595;28;20409;-72
2022/10/12 06:16:29;;;;;;;0.85;0.85;;;14.70;99.90;;;;;;5013374;28;20053;-72
2022/10/12 06:18:55;;;;;;;0.30;0.30;;;14.50;99.90;;;;;;4996087;28;20540;-72
2022/10/12 06:21:20;;;;;;;0.55;0.55;;;14.40;99.90;;;;;;5013572;28;20026;-72
2022/10/12 06:23:46;;;;;;;0.10;0.10;;;14.40;99.90;;;;;;4995946;28;20080;-74
2022/10/12 06:26:12;;;;;;;0.05;0.05;;;14.40;99.90;;;;;;4979639;28;20039;-74
2022/10/12 06:28:38;;;;;;;0.00;0.00;;;14.40;99.90;;;;;;4995737;28;20040;-74
2022/10/12 06:31:04;;;;;;;1.63;1.35;;;14.30;99.90;;;;;;5013168;28;20026;-74
2022/10/12 06:33:29;;;;;;;0.10;0.10;;;14.40;99.90;;;;;;5013303;28;20072;-74
2022/10/12 06:35:55;;;;;;;0.00;0.00;;;14.40;99.90;;;;;;4995557;28;20389;-74
2022/10/12 06:38:22;;;;;;;0.10;0.10;;;14.40;99.90;;;;;;5017948;28;20080;-74
2022/10/12 06:40:48;;;;;;;0.32;0.32;;;14.40;99.90;;;;;;5030346;28;20480;-74
2022/10/12 06:43:14;;;;;;;0.32;0.32;;;14.50;99.90;;;;;;5012859;28;20113;-74
2022/10/12 06:45:40;;;;;;;0.10;0.10;;;14.50;99.90;;;;;;5017959;28;20022;-73
2022/10/12 06:48:06;;;;;;;0.10;0.10;;;14.50;99.90;;;;;;5032432;28;20455;-74
2022/10/12 06:50:32;;;;;;;0.10;0.10;;;14.50;99.90;;;;;;5014717;28;20042;-74
2022/10/12 06:52:58;;;;;;;0.20;0.20;;;14.50;99.90;;;;;;5032554;28;20396;-74
2022/10/12 06:55:23;;;;;;;0.08;0.08;;;14.40;99.90;;;;;;5017174;28;20021;-74
2022/10/12 06:57:49;;;;;;;0.00;0.00;;;14.40;99.90;;;;;;5012975;28;20066;-74
2022/10/12 07:00:15;;;;;;;2.30;0.95;;;14.30;99.90;;;;;;4994467;28;20033;-74
2022/10/12 07:02:41;;;;;;;0.00;0.00;;;14.30;99.90;;;;;;5012643;28;20040;-74
2022/10/12 07:05:08;;;;;;;0.10;0.10;;;14.30;99.90;;;;;;4994935;28;20026;-74
2022/10/12 07:07:35;;;;;;;0.10;0.10;;;14.40;99.90;;;;;;5012679;28;20034;-74
2022/10/12 07:10:03;;;;;;;0.45;0.45;;;14.50;99.90;;;;;;4995160;28;20486;-74
2022/10/12 07:12:29;;;;;;;0.10;0.10;;;14.40;99.90;;;;;;4995005;28;20112;-74
2022/10/12 07:14:55;;;;;;;0.85;0.85;;;14.40;99.90;;;;;;5012189;28;20030;-74
2022/10/12 07:17:21;;;;;;;0.03;0.03;;;14.40;99.90;;;;;;5012445;28;20072;-74
2022/10/12 07:19:47;;;;;;;0.10;0.10;;;14.30;99.90;;;;;;5012503;28;20512;-74
2022/10/12 07:22:12;;;;;;;1.08;0.98;;;14.20;99.90;;;;;;5012415;28;20026;-74
2022/10/12 07:24:38;;;;;;;0.10;0.10;;;14.30;99.90;;;;;;5012157;28;20029;-74
2022/10/12 07:27:06;;;;;;;0.10;0.10;;;14.40;99.90;;;;;;5011992;28;20049;-74
2022/10/12 07:29:33;;;;;;;0.10;0.10;;;14.50;99.90;;;;;;5012260;28;20030;-74
2022/10/12 07:31:59;;;;;;;0.00;0.00;;;14.50;99.90;;;;;;5012197;28;20391;-74
2022/10/12 07:34:27;;;;;;;0.00;0.00;;;14.50;99.90;;;;;;4991816;28;20022;-74
2022/10/12 07:36:53;;;;;;;0.28;0.22;;;14.60;99.90;;;;;;5031406;28;20233;-74
2022/10/12 07:39:19;;;;;;;0.10;0.10;;;14.70;99.90;;;;;;5018381;28;20038;-74
2022/10/12 07:41:45;;;;;;;0.10;0.10;;;14.60;99.90;;;;;;5012108;28;20022;-74
2022/10/12 07:44:11;;;;;;;0.08;0.08;;;14.70;99.90;;;;;;5012770;28;20028;-74
2022/10/12 07:46:37;;;;;;;1.63;1.08;;;14.80;99.90;;;;;;5031517;28;20501;-74
2022/10/12 07:49:03;;;;;;;17.23;3.85;;;14.70;99.90;;;;;;4999345;28;20072;-74
2022/10/12 07:51:29;;;;;;;0.10;0.10;;;14.70;99.90;;;;;;5007721;28;20038;-74
2022/10/12 07:53:55;;;;;;;0.40;0.40;;;14.70;99.90;;;;;;5011627;28;20432;-74
2022/10/12 07:56:21;;;;;;;0.10;0.10;;;14.70;99.90;;;;;;4993694;28;20026;-74
2022/10/12 07:58:55;;;;;;;0.05;0.05;;;14.80;99.90;;;;;;4994068;28;20025;-74
2022/10/12 08:01:22;;;;;;;0.10;0.10;;;14.80;99.90;;;;;;5004275;28;20034;-74
2022/10/12 08:03:49;;;;;;;0.10;0.10;;;15.00;99.90;;;;;;5010847;28;20508;-74
2022/10/12 08:06:18;;;;;;;0.10;0.10;;;15.10;99.90;;;;;;5017774;28;20028;-74
2022/10/12 08:08:44;;;;;;;0.00;0.00;;;15.10;99.90;;;;;;5009152;28;20030;-74
2022/10/12 08:11:11;;;;;;;0.20;0.20;;;15.10;99.90;;;;;;5002263;28;20026;-74
2022/10/12 08:13:38;;;;;;;0.10;0.10;;;15.10;99.90;;;;;;5027608;28;20018;-74
2022/10/12 08:16:07;;;;;;;0.10;0.10;;;15.10;99.90;;;;;;5015347;28;20493;-74
2022/10/12 08:18:32;;;;;;;0.10;0.10;;;15.00;99.90;;;;;;4997934;28;20033;-74
2022/10/12 08:20:58;;;;;;;0.60;0.60;;;15.10;99.90;;;;;;5015136;28;20052;-75
2022/10/12 08:23:24;;;;;;;1.10;0.80;;;15.20;99.90;;;;;;5015095;28;20025;-73
2022/10/12 08:25:55;;;;;;;0.10;0.10;;;15.20;99.90;;;;;;4997271;28;20026;-73
2022/10/12 08:28:22;;;;;;;0.07;0.07;;;15.00;99.90;;;;;;5015630;28;20075;-74
2022/10/12 08:30:48;;;;;;;1.65;0.65;;;15.00;99.90;;;;;;5015094;28;20049;-73
2022/10/12 08:33:14;;;;;;;0.13;0.13;;;15.00;99.90;;;;;;5017318;28;20030;-74
2022/10/12 08:35:41;;;;;;;0.32;0.32;;;15.10;99.90;;;;;;5030140;28;20038;-73
2022/10/12 08:38:08;;;;;;;0.55;0.55;;;15.00;99.90;;;;;;5015241;28;20097;-74
2022/10/12 08:40:45;;;;;;;0.10;0.10;;;14.90;99.90;;;;;;5003467;28;20033;-74
2022/10/12 08:43:35;;;;;;;0.10;0.10;;;15.00;99.90;;;;;;5015152;28;20101;-74
2022/10/12 08:46:02;;;;;;;0.10;0.10;;;15.00;99.90;;;;;;4997457;28;20478;-74
2022/10/12 08:48:34;;;;;;;0.10;0.10;;;15.20;99.90;;;;;;4997653;28;20026;-73
2022/10/12 08:51:11;;;;;;;1.10;1.00;;;15.30;99.90;;;;;;4998366;28;20069;-74
2022/10/12 08:54:01;;;;;;;0.20;0.20;;;15.20;99.90;;;;;;5013846;28;20472;-74
2022/10/12 08:56:28;;;;;;;0.30;0.28;;;15.10;99.90;;;;;;5008820;28;20022;-74
2022/10/12 08:58:54;;;;;;;0.10;0.10;;;15.10;99.90;;;;;;5014962;28;20032;-74
2022/10/12 09:01:22;;;;;;;0.10;0.10;;;15.20;99.90;;;;;;5014704;28;20063;-74
2022/10/12 09:04:15;;;;;;;0.13;0.13;;;15.30;99.90;;;;;;5013471;28;20087;-74
2022/10/12 09:07:23;;;;;;;1.77;1.00;;;15.30;99.90;;;;;;5013766;28;20105;-74
2022/10/12 09:10:09;;;;;;;0.10;0.10;;;15.30;99.90;;;;;;4918856;29;20043;-74
2022/10/12 09:13:02;;;;;;;0.10;0.10;;;15.30;99.90;;;;;;5012946;28;20030;-73
2022/10/12 09:15:32;;;;;;;0.10;0.10;;;15.30;99.90;;;;;;5014360;28;20518;-74
2022/10/12 09:18:00;;;;;;;0.10;0.10;;;15.50;99.90;;;;;;5014216;28;20109;-74
2022/10/12 09:20:39;;;;;;;0.00;0.00;;;15.60;99.90;;;;;;5014510;28;20415;-74
2022/10/12 09:23:30;;;;;;;0.10;0.10;;;15.70;99.90;;;;;;4995297;28;20121;-74
2022/10/12 09:26:03;;;;;;;0.10;0.10;;;15.80;99.90;;;;;;4993598;28;20058;-74
2022/10/12 09:28:40;;;;;;;0.10;0.10;;;15.50;99.90;;;;;;4994853;28;20479;-74
2022/10/12 09:31:09;;;;;;;0.10;0.10;;;15.60;99.90;;;;;;5011146;28;20105;-74
2022/10/12 09:33:57;;;;;;;0.10;0.10;;;15.60;99.90;;;;;;5010367;28;20026;-74
2022/10/12 09:36:26;;;;;;;0.10;0.10;;;15.70;99.90;;;;;;4996094;28;20033;-74
2022/10/12 09:38:53;;;;;;;0.10;0.10;;;15.70;99.90;;;;;;5013986;28;20084;-74
2022/10/12 09:41:32;;;;;;;0.30;0.30;;;15.80;99.90;;;;;;5012932;28;20058;-74
2022/10/12 09:44:01;;;;;;;0.40;0.40;;;15.80;99.90;;;;;;5013877;28;20030;-74
2022/10/12 09:46:40;;;;;;;0.10;0.10;;;15.90;99.90;;;;;;5012776;28;20030;-74
2022/10/12 09:49:05;;;;;;;0.10;0.10;;;15.80;99.90;;;;;;5013785;28;20022;-74
2022/10/12 09:51:32;;;;;;;0.10;0.10;;;15.80;99.90;;;;;;5013505;28;20026;-74
2022/10/12 09:54:02;;;;;;;0.10;0.10;;;16.00;99.90;;;;;;5013739;28;20025;-74
2022/10/12 09:56:43;;;;;;;0.10;0.10;;;16.10;99.90;;;;;;5012795;28;20021;-73
2022/10/12 09:59:38;;;;;;;0.10;0.10;;;16.10;99.90;;;;;;4994046;28;20026;-74
2022/10/12 10:02:10;;;;;;;0.55;0.55;;;16.20;99.90;;;;;;4998467;28;20041;-74
2022/10/12 10:04:37;;;;;;;1.45;0.73;;;16.10;99.90;;;;;;4996045;28;20040;-74
2022/10/12 10:07:26;;;;;;;0.93;0.88;;;15.90;99.90;;;;;;4995260;28;20034;-74
2022/10/12 10:10:06;;;;;;;0.10;0.10;;;15.80;99.90;;;;;;5013285;28;20065;-74
2022/10/12 10:12:41;;;;;;;1.08;0.63;;;15.90;99.90;;;;;;5013254;28;20022;-74
2022/10/12 10:15:29;;;;;;;0.35;0.32;;;16.00;99.90;;;;;;5012307;28;20026;-74
2022/10/12 10:18:04;;;;;;;2.05;1.95;;;16.20;99.90;;;;;;5013140;28;20022;-74
2022/10/12 10:20:38;;;;;;;0.10;0.10;;;16.00;99.90;;;;;;5013475;28;20512;-74
2022/10/12 10:23:04;;;;;;;0.10;0.10;;;16.10;99.90;;;;;;5012126;28;20389;-74
2022/10/12 10:25:31;;;;;;;0.75;0.75;;;16.10;99.90;;;;;;5013392;28;20037;-74
2022/10/12 10:28:21;;;;;;;0.43;0.43;;;16.20;99.90;;;;;;5012937;28;20072;-74
2022/10/12 10:31:01;;;;;;;1.00;0.68;;;16.40;99.90;;;;;;4995562;28;20401;-74
2022/10/12 10:33:27;;;;;;;0.10;0.10;;;16.50;99.90;;;;;;5012854;28;20096;-74
2022/10/12 10:35:58;;;;;;;0.10;0.10;;;16.50;99.90;;;;;;5011837;28;20025;-74
2022/10/12 10:38:24;;;;;;;2.50;0.33;;;16.50;99.90;;;;;;5012704;28;20450;-74
2022/10/12 10:40:51;;;;;;;0.13;0.13;;;16.50;99.90;;;;;;5012342;28;20026;-74
2022/10/12 10:43:29;;;;;;;0.28;0.28;;;16.60;99.90;;;;;;5012308;28;20033;-74
2022/10/12 10:46:01;;;;;;;0.10;0.10;;;16.70;99.90;;;;;;5012618;28;20423;-75
2022/10/12 10:48:30;;;;;;;0.20;0.20;;;16.80;99.90;;;;;;5011181;28;20112;-74
2022/10/12 10:50:59;;;;;;;0.00;0.00;;;16.60;99.90;;;;;;5012995;28;20021;-75
2022/10/12 10:53:29;;;;;;;1.98;1.10;;;16.50;99.90;;;;;;5012169;28;20048;-75
2022/10/12 10:56:01;;;;;;;0.10;0.10;;;16.50;99.90;;;;;;5011243;28;20021;-75
2022/10/12 10:58:47;;;;;;;0.40;0.40;;;16.40;99.90;;;;;;5015774;28;20065;-74
2022/10/12 11:01:28;;;;;;;0.10;0.10;;;16.50;99.90;;;;;;4994984;28;20026;-74
2022/10/12 11:04:01;;;;;;;0.10;0.10;;;16.80;99.90;;;;;;4994292;28;20385;-74
2022/10/12 11:06:40;;;;;;;0.10;0.10;;;17.10;99.90;;;;;;5012574;28;20037;-74
2022/10/12 11:09:30;;;;;;;0.50;0.50;;;17.20;99.90;;;;;;5012051;28;20033;-73
2022/10/12 11:11:58;;;;;;;0.10;0.10;;;17.20;99.90;;;;;;5011789;28;20054;-73
2022/10/12 11:14:32;;;;;;;0.13;0.13;;;17.20;99.90;;;;;;5011377;28;20029;-74
2022/10/12 11:17:04;;;;;;;0.10;0.10;;;17.30;99.90;;;;;;5012357;28;20153;-74
2022/10/12 11:19:35;;;;;;;;;;;17.00;99.90;;;;;;5012741;28;20413;-74
2022/10/12 11:22:39;;;;;;;1.10;0.68;;;16.90;99.90;;;;;;5012161;28;19933;-74
2022/10/12 11:25:23;;;;;;;0.10;0.10;;;16.90;99.90;;;;;;5011381;28;20163;-74
2022/10/12 11:27:50;;;;;;;1.75;1.65;;;16.90;99.90;;;;;;4994596;28;20049;-74
2022/10/12 11:30:25;;;;;;;4.32;0.50;;;16.70;99.90;;;;;;4981402;28;20030;-75
2022/10/12 11:32:57;;;;;;;7.28;3.70;;;16.70;99.90;;;;;;5012414;28;20083;-74
2022/10/12 11:35:34;;;;;;;0.10;0.10;;;16.50;99.90;;;;;;5011945;28;20026;-74
2022/10/12 11:38:17;;;;;;;0.10;0.10;;;16.50;99.90;;;;;;5012186;28;20026;-74
2022/10/12 11:40:53;;;;;;;4.07;3.85;;;16.40;99.90;;;;;;5012007;28;20041;-74
2022/10/12 11:43:25;;;;;;;0.10;0.10;;;16.30;99.90;;;;;;5011759;28;20025;-74
2022/10/12 11:45:55;;;;;;;0.03;0.03;;;16.30;99.90;;;;;;5011180;28;20022;-74
2022/10/12 11:48:30;;;;;;;0.15;0.15;;;16.40;99.90;;;;;;4994153;28;20112;-75
2022/10/12 11:50:57;;;;;;;0.00;0.00;;;16.30;99.90;;;;;;5012189;28;20022;-75
2022/10/12 11:54:00;;;;;;;3.00;1.77;;;16.30;99.90;;;;;;5011519;28;20033;-75
2022/10/12 11:56:33;;;;;;;0.10;0.10;;;16.20;99.90;;;;;;5011768;28;20022;-75
2022/10/12 11:59:40;;;;;;;4.55;1.95;;;16.10;99.90;;;;;;5011474;28;20022;-75
2022/10/12 12:02:16;;;;;;;0.43;0.43;;;16.10;99.90;;;;;;5010979;28;20060;-75
2022/10/12 12:04:45;;;;;;;3.97;3.10;;;16.20;99.90;;;;;;5010611;28;20030;-75
2022/10/12 12:07:36;;;;;;;0.20;0.20;;;16.20;99.90;;;;;;4978003;28;20040;-75
2022/10/12 12:10:22;;;;;;;0.20;0.20;;;16.50;99.90;;;;;;5011234;28;20042;-75
2022/10/12 12:13:10;;;;;;;2.08;1.30;;;16.40;99.90;;;;;;5011797;28;20026;-75
2022/10/12 12:15:36;;;;;;;1.15;1.00;;;16.50;99.90;;;;;;4993328;28;20022;-74
2022/10/12 12:18:32;;;;;;;0.73;0.73;;;16.40;99.90;;;;;;5010595;28;20125;-75
2022/10/12 12:21:07;;;;;;;0.77;0.60;;;16.50;99.90;;;;;;5009926;28;20037;-75
2022/10/12 12:23:53;;;;;;;2.53;2.30;;;16.40;99.90;;;;;;5010898;28;20026;-75
2022/10/12 12:26:21;;;;;;;1.10;0.88;;;16.40;99.90;;;;;;5011524;28;20104;-75
2022/10/12 12:28:50;;;;;;;0.73;0.73;;;16.50;99.90;;;;;;4993792;28;20057;-75
2022/10/12 12:31:21;;;;;;;0.20;0.20;;;16.60;99.90;;;;;;4975372;28;20503;-76
2022/10/12 12:33:48;;;;;;;;;;;16.60;99.90;;;;;;4975228;28;20061;-75
2022/10/12 12:36:37;;;;;;;0.10;0.10;;;16.60;99.90;;;;;;5025369;28;19905;-75
2022/10/12 12:39:06;;;;;;;0.20;0.20;;;16.50;99.90;;;;;;5013379;28;20034;-75
2022/10/12 12:41:52;;;;;;;0.70;0.70;;;16.60;99.90;;;;;;5026632;28;20041;-75
2022/10/12 12:44:32;;;;;;;0.40;0.40;;;16.60;99.90;;;;;;4976179;28;20368;-75
2022/10/12 12:47:01;;;;;;;0.63;0.63;;;16.50;99.90;;;;;;5018616;28;20125;-75
2022/10/12 12:49:52;;;;;;;0.10;0.10;;;16.50;99.90;;;;;;5027749;28;20041;-75
2022/10/12 12:52:23;;;;;;;0.10;0.10;;;16.40;99.90;;;;;;5011586;28;20552;-75
2022/10/12 12:55:13;;;;;;;0.20;0.20;;;16.50;99.90;;;;;;4994492;28;20030;-75
2022/10/12 12:58:08;;;;;;;0.10;0.10;;;16.60;99.90;;;;;;4994137;28;20022;-75
2022/10/12 13:00:36;;;;;;;0.50;0.50;;;16.60;99.90;;;;;;5014473;28;20034;-75
2022/10/12 13:03:30;;;;;;;0.10;0.10;;;16.60;99.90;;;;;;5015004;28;20025;-74
2022/10/12 13:06:07;;;;;;;2.22;2.08;;;16.40;99.90;;;;;;5014322;28;20025;-75
2022/10/12 13:09:11;;;;;;;0.40;0.40;;;16.40;99.90;;;;;;5014775;28;20056;-74